createdAt,value
2023-05-09T00:00:29.901Z,7.57
2023-05-09T00:02:56.616Z,7.60
2023-05-09T00:05:23.351Z,6.72
2023-05-09T00:07:49.957Z,9.73
2023-05-09T00:10:16.660Z,7.38
2023-05-09T00:12:43.803Z,5.90
2023-05-09T00:15:10.872Z,8.32
2023-05-09T00:17:38.715Z,9.63
2023-05-09T00:20:12.386Z,6.18
2023-05-09T00:22:41.047Z,7.95
2023-05-09T00:25:08.969Z,7.80
2023-05-09T00:27:35.843Z,8.85
2023-05-09T00:30:04.187Z,7.30
2023-05-09T00:32:30.940Z,8.52
2023-05-09T00:34:58.288Z,12.02
2023-05-09T00:37:24.842Z,8.98
2023-05-09T00:39:51.335Z,9.05
2023-05-09T00:42:17.906Z,10.13
2023-05-09T00:44:44.490Z,7.93
2023-05-09T00:47:11.097Z,11.60
2023-05-09T00:49:38.250Z,9.45
2023-05-09T00:52:05.546Z,8.63
2023-05-09T00:54:32.329Z,10.73
2023-05-09T00:56:58.885Z,8.48
2023-05-09T00:59:25.469Z,7.78
2023-05-09T01:01:52.124Z,8.00
2023-05-09T01:04:18.852Z,10.30
2023-05-09T01:06:51.406Z,7.63
2023-05-09T01:09:26.625Z,9.35
2023-05-09T01:12:07.284Z,8.48
2023-05-09T01:14:38.808Z,12.30
2023-05-09T01:17:25.787Z,10.07
2023-05-09T01:20:00.231Z,10.82
2023-05-09T01:22:34.950Z,11.65
2023-05-09T01:25:39.004Z,13.02
2023-05-09T01:28:55.674Z,9.63
2023-05-09T01:31:23.163Z,11.70
2023-05-09T01:33:56.710Z,9.13
2023-05-09T01:36:26.103Z,12.43
2023-05-09T01:38:52.791Z,8.32
2023-05-09T01:41:22.520Z,9.68
2023-05-09T01:43:51.188Z,9.88
2023-05-09T01:46:19.473Z,10.27
2023-05-09T01:48:46.761Z,9.88
2023-05-09T01:51:15.079Z,14.73
2023-05-09T01:53:43.401Z,10.73
2023-05-09T01:56:11.484Z,10.60
2023-05-09T01:58:39.364Z,11.18
2023-05-09T02:01:06.279Z,13.35
2023-05-09T02:03:34.325Z,11.15
2023-05-09T02:06:03.887Z,10.88
2023-05-09T02:08:31.485Z,13.30
2023-05-09T02:10:58.147Z,16.67
2023-05-09T02:13:25.047Z,10.43
2023-05-09T02:15:52.354Z,11.43
2023-05-09T02:18:18.860Z,9.60
2023-05-09T02:20:45.865Z,9.85
2023-05-09T02:23:12.593Z,9.60
2023-05-09T02:25:40.732Z,9.77
2023-05-09T02:28:10.018Z,10.68
2023-05-09T02:30:41.992Z,11.02
2023-05-09T02:35:37.399Z,13.38
2023-05-09T02:38:05.483Z,9.98
2023-05-09T02:40:33.620Z,9.90
2023-05-09T02:43:00.122Z,12.52
2023-05-09T02:45:26.816Z,10.73
2023-05-09T02:47:53.410Z,10.45
2023-05-09T02:50:20.115Z,9.18
2023-05-09T02:52:46.670Z,9.15
2023-05-09T02:55:13.446Z,11.23
2023-05-09T02:57:40.284Z,10.07
2023-05-09T03:00:10.498Z,12.18
2023-05-09T03:02:38.627Z,9.88
2023-05-09T03:05:05.875Z,9.80
2023-05-09T03:07:32.401Z,11.32
2023-05-09T03:09:58.968Z,8.93
2023-05-09T03:12:25.507Z,9.95
2023-05-09T03:14:52.018Z,7.75
2023-05-09T03:17:21.363Z,10.48
2023-05-09T03:19:48.634Z,9.63
2023-05-09T03:22:15.683Z,10.65
2023-05-09T03:24:42.319Z,11.25
2023-05-09T03:27:08.885Z,10.05
2023-05-09T03:29:35.469Z,11.80
2023-05-09T03:32:02.017Z,10.23
2023-05-09T03:34:28.526Z,10.57
2023-05-09T03:36:55.087Z,9.80
2023-05-09T03:39:21.668Z,8.65
2023-05-09T03:41:48.877Z,14.68
2023-05-09T03:44:15.960Z,10.65
2023-05-09T03:46:42.565Z,11.07
2023-05-09T03:49:09.195Z,10.55
2023-05-09T03:51:35.838Z,9.80
2023-05-09T03:54:02.367Z,11.95
2023-05-09T03:56:28.953Z,9.52
2023-05-09T03:58:55.499Z,10.02
2023-05-09T04:01:22.147Z,11.55
2023-05-09T04:03:48.826Z,10.73
2023-05-09T04:06:15.588Z,9.43
2023-05-09T04:08:42.517Z,13.13
2023-05-09T04:11:09.099Z,12.13
2023-05-09T04:13:35.640Z,8.77
2023-05-09T04:16:02.587Z,10.82
2023-05-09T04:18:29.115Z,10.73
2023-05-09T04:20:55.653Z,9.80
2023-05-09T04:23:22.188Z,14.90
2023-05-09T04:25:51.324Z,13.48
2023-05-09T04:28:18.028Z,11.48
2023-05-09T04:30:44.585Z,9.68
2023-05-09T04:33:11.247Z,10.77
2023-05-09T04:35:38.483Z,9.88
2023-05-09T04:38:05.030Z,11.25
2023-05-09T04:40:31.665Z,8.75
2023-05-09T04:42:59.038Z,9.50
2023-05-09T04:45:26.095Z,10.95
2023-05-09T04:47:52.675Z,12.90
2023-05-09T04:50:19.328Z,16.90
2023-05-09T04:52:46.118Z,9.90
2023-05-09T04:55:12.826Z,7.70
2023-05-09T04:57:39.950Z,7.43
2023-05-09T05:00:07.950Z,6.57
2023-05-09T05:02:34.578Z,6.97
2023-05-09T05:05:17.980Z,9.32
2023-05-09T05:07:47.640Z,10.50
2023-05-09T05:10:14.217Z,8.95
2023-05-09T05:12:40.921Z,8.40
2023-05-09T05:15:07.955Z,8.35
2023-05-09T05:17:34.602Z,7.88
2023-05-09T05:20:01.341Z,9.73
2023-05-09T05:22:27.865Z,10.43
2023-05-09T05:24:54.531Z,9.43
2023-05-09T05:27:21.181Z,9.23
2023-05-09T05:29:47.675Z,8.73
2023-05-09T05:32:14.176Z,8.40
2023-05-09T05:34:40.918Z,9.30
2023-05-09T05:37:07.673Z,18.38
2023-05-09T05:39:34.185Z,18.48
2023-05-09T05:42:00.757Z,17.05
2023-05-09T05:44:27.286Z,13.25
2023-05-09T05:46:53.855Z,34.35
2023-05-09T05:49:20.450Z,21.50
2023-05-09T05:51:47.047Z,13.85
2023-05-09T05:54:13.571Z,18.88
2023-05-09T05:56:40.149Z,12.27
2023-05-09T05:59:06.675Z,12.40
2023-05-09T06:01:33.247Z,24.92
2023-05-09T06:03:59.956Z,12.73
2023-05-09T06:06:27.347Z,9.45
2023-05-09T06:08:54.011Z,12.57
2023-05-09T06:11:21.225Z,13.35
2023-05-09T06:13:47.752Z,8.95
2023-05-09T06:16:19.688Z,8.38
2023-05-09T06:18:47.324Z,18.25
2023-05-09T06:21:13.835Z,21.42
2023-05-09T06:23:47.262Z,22.52
2023-05-09T06:26:24.040Z,16.35
2023-05-09T06:28:50.657Z,15.90
2023-05-09T06:31:17.338Z,11.77
2023-05-09T06:33:43.997Z,18.65
2023-05-09T06:36:10.695Z,15.18
2023-05-09T06:38:37.242Z,14.45
2023-05-09T06:41:03.832Z,13.15
2023-05-09T06:43:30.546Z,18.63
2023-05-09T06:45:57.196Z,23.17
2023-05-09T06:48:26.889Z,25.77
2023-05-09T06:50:53.694Z,24.83
2023-05-09T06:53:20.240Z,14.95
2023-05-09T06:55:47.749Z,16.63
2023-05-09T06:58:14.831Z,16.80
2023-05-09T07:00:41.378Z,14.25
2023-05-09T07:03:08.001Z,23.27
2023-05-09T07:05:34.813Z,21.08
2023-05-09T07:08:01.456Z,19.08
2023-05-09T07:10:28.158Z,18.63
2023-05-09T07:12:54.828Z,21.60
2023-05-09T07:15:36.866Z,21.85
2023-05-09T07:18:07.033Z,14.85
2023-05-09T07:20:33.762Z,13.38
2023-05-09T07:23:00.448Z,19.33
2023-05-09T07:25:27.106Z,14.00
2023-05-09T07:27:53.615Z,16.85
2023-05-09T07:30:20.196Z,16.73
2023-05-09T07:32:47.054Z,19.52
2023-05-09T07:35:13.898Z,13.90
2023-05-09T07:37:40.932Z,13.57
2023-05-09T07:40:08.158Z,22.02
2023-05-09T07:42:34.709Z,19.90
2023-05-09T07:45:01.400Z,25.55
2023-05-09T07:47:28.012Z,20.92
2023-05-09T07:49:54.570Z,17.80
2023-05-09T07:52:21.197Z,17.67
2023-05-09T07:54:47.776Z,19.00
2023-05-09T07:57:14.850Z,18.90
2023-05-09T07:59:42.409Z,18.83
2023-05-09T08:02:09.117Z,24.83
2023-05-09T08:04:38.287Z,19.00
2023-05-09T08:07:05.188Z,20.50
2023-05-09T08:09:31.878Z,21.10
2023-05-09T08:11:58.530Z,17.00
2023-05-09T08:14:25.352Z,16.85
2023-05-09T08:16:51.921Z,16.08
2023-05-09T08:19:18.450Z,15.95
2023-05-09T08:21:45.009Z,21.17
2023-05-09T08:24:11.521Z,9.13
2023-05-09T08:26:38.109Z,18.85
2023-05-09T08:29:04.666Z,15.50
2023-05-09T08:31:31.262Z,11.90
2023-05-09T08:33:57.811Z,15.90
2023-05-09T08:36:24.385Z,11.63
2023-05-09T08:38:50.946Z,13.20
2023-05-09T08:41:18.062Z,11.82
2023-05-09T08:43:45.624Z,12.15
2023-05-09T08:46:14.397Z,14.00
2023-05-09T08:48:43.166Z,15.02
2023-05-09T08:51:11.978Z,10.63
2023-05-09T08:53:39.014Z,9.65
2023-05-09T08:56:06.141Z,10.27
2023-05-09T08:58:34.258Z,11.60
2023-05-09T09:01:04.678Z,9.93
2023-05-09T09:03:32.087Z,8.02
2023-05-09T09:05:58.982Z,13.95
2023-05-09T09:08:27.547Z,17.30
2023-05-09T09:10:54.340Z,18.13
2023-05-09T09:13:21.978Z,16.35
2023-05-09T09:15:49.596Z,10.32
2023-05-09T09:18:23.561Z,9.40
2023-05-09T09:20:53.146Z,10.77
2023-05-09T09:23:24.435Z,12.75
2023-05-09T09:25:59.728Z,11.40
2023-05-09T09:28:27.089Z,13.77
2023-05-09T09:30:53.926Z,13.55
2023-05-09T09:33:22.090Z,16.40
2023-05-09T09:35:53.661Z,9.48
2023-05-09T09:38:24.718Z,10.93
2023-05-09T09:40:56.152Z,8.67
2023-05-09T09:43:29.848Z,7.95
2023-05-09T09:45:57.839Z,8.63
2023-05-09T09:48:26.042Z,10.55
2023-05-09T09:50:55.489Z,8.52
2023-05-09T09:53:22.101Z,7.05
2023-05-09T09:55:52.233Z,6.45
2023-05-09T09:58:21.971Z,9.55
2023-05-09T10:01:06.327Z,7.10
2023-05-09T10:03:46.445Z,5.97
2023-05-09T10:06:16.048Z,11.40
2023-05-09T10:08:49.173Z,4.97
2023-05-09T10:11:16.542Z,4.65
2023-05-09T10:13:44.475Z,6.18
2023-05-09T10:16:11.656Z,7.25
2023-05-09T10:18:41.198Z,4.53
2023-05-09T10:21:11.832Z,8.75
2023-05-09T10:23:42.821Z,6.25
2023-05-09T10:26:23.024Z,7.20
2023-05-09T10:28:54.864Z,5.53
2023-05-09T10:33:51.332Z,4.90
2023-05-09T10:36:22.174Z,3.50
2023-05-09T10:38:49.857Z,6.80
2023-05-09T10:41:18.774Z,4.45
2023-05-09T10:43:46.043Z,6.97
2023-05-09T10:46:13.611Z,4.43
2023-05-09T10:48:41.865Z,5.47
2023-05-09T10:51:09.548Z,4.60
2023-05-09T10:53:50.304Z,3.38
2023-05-09T10:56:26.522Z,5.03
2023-05-09T10:58:54.661Z,15.77
2023-05-09T11:01:39.747Z,11.10
2023-05-09T11:04:11.658Z,7.75
2023-05-09T11:09:35.496Z,7.05
2023-05-09T11:12:04.930Z,4.68
2023-05-09T11:14:41.437Z,6.30
2023-05-09T11:17:23.089Z,7.57
2023-05-09T11:19:49.854Z,7.95
2023-05-09T11:22:17.446Z,6.82
2023-05-09T11:24:51.216Z,6.18
2023-05-09T11:27:23.051Z,4.47
2023-05-09T11:32:22.794Z,6.63
2023-05-09T11:34:49.832Z,5.93
2023-05-09T11:37:20.865Z,5.47
2023-05-09T11:39:58.733Z,7.63
2023-05-09T11:42:28.692Z,4.78
2023-05-09T11:44:56.847Z,6.35
2023-05-09T11:47:23.882Z,7.22
2023-05-09T11:49:50.721Z,9.85
2023-05-09T11:52:19.259Z,7.38
2023-05-09T11:54:45.768Z,7.10
2023-05-09T11:57:17.276Z,5.20
2023-05-09T11:59:45.487Z,16.15
2023-05-09T12:02:12.935Z,12.75
2023-05-09T12:04:39.659Z,11.38
2023-05-09T12:07:06.362Z,8.60
2023-05-09T12:09:34.772Z,8.23
2023-05-09T12:12:01.500Z,12.00
2023-05-09T12:14:33.280Z,7.65
2023-05-09T12:17:00.188Z,10.45
2023-05-09T12:19:27.238Z,14.05
2023-05-09T12:22:01.934Z,10.60
2023-05-09T12:24:30.022Z,11.23
2023-05-09T12:26:58.527Z,14.43
2023-05-09T12:29:26.081Z,9.57
2023-05-09T12:31:53.950Z,6.75
2023-05-09T12:34:21.241Z,7.13
2023-05-09T12:36:51.749Z,9.77
2023-05-09T12:39:19.492Z,15.02
2023-05-09T12:41:53.874Z,11.32
2023-05-09T12:44:29.642Z,10.13
2023-05-09T12:47:01.723Z,6.78
2023-05-09T12:49:29.643Z,3.75
2023-05-09T12:52:02.995Z,5.43
2023-05-09T12:54:31.200Z,6.07
2023-05-09T12:57:02.080Z,5.43
2023-05-09T12:59:30.288Z,5.47
2023-05-09T13:01:59.381Z,6.93
2023-05-09T13:04:28.104Z,6.68
2023-05-09T13:06:57.706Z,9.43
2023-05-09T13:09:27.916Z,3.47
2023-05-09T13:11:54.563Z,4.82
2023-05-09T13:14:23.314Z,5.75
2023-05-09T13:16:50.006Z,3.20
2023-05-09T13:19:16.660Z,4.60
2023-05-09T13:21:43.373Z,4.38
2023-05-09T13:24:09.975Z,11.40
2023-05-09T13:26:36.613Z,4.50
2023-05-09T13:29:03.272Z,3.67
2023-05-09T13:31:30.592Z,4.95
2023-05-09T13:33:57.297Z,8.95
2023-05-09T13:36:23.920Z,6.78
2023-05-09T13:38:50.465Z,6.25
2023-05-09T13:41:20.934Z,5.13
2023-05-09T13:43:47.935Z,4.15
2023-05-09T13:46:14.565Z,6.45
2023-05-09T13:48:41.895Z,8.70
2023-05-09T13:51:08.776Z,3.95
2023-05-09T13:53:38.123Z,6.65
2023-05-09T13:56:12.070Z,5.85
2023-05-09T13:58:38.620Z,7.70
2023-05-09T14:01:05.429Z,9.73
2023-05-09T14:03:32.198Z,4.90
2023-05-09T14:05:58.907Z,6.68
2023-05-09T14:08:25.555Z,6.43
2023-05-09T14:10:52.043Z,6.18
2023-05-09T14:13:18.677Z,3.38
2023-05-09T14:15:45.346Z,2.20
2023-05-09T14:18:15.504Z,5.65
2023-05-09T14:20:44.422Z,2.40
2023-05-09T14:23:11.002Z,6.63
2023-05-09T14:25:37.985Z,7.28
2023-05-09T14:28:06.904Z,2.17
2023-05-09T14:30:34.258Z,8.73
2023-05-09T14:33:00.968Z,8.45
2023-05-09T14:35:27.666Z,4.13
2023-05-09T14:37:54.332Z,2.20
2023-05-09T14:40:21.116Z,3.47
2023-05-09T14:42:48.455Z,4.80
2023-05-09T14:45:15.489Z,4.07
2023-05-09T14:47:42.076Z,5.95
2023-05-09T14:50:11.425Z,2.97
2023-05-09T14:52:38.001Z,2.63
2023-05-09T14:55:06.223Z,6.20
2023-05-09T14:57:33.372Z,6.85
2023-05-09T15:00:12.508Z,3.53
2023-05-09T15:02:43.707Z,4.75
2023-05-09T15:05:11.731Z,2.53
2023-05-09T15:07:38.750Z,3.75
2023-05-09T15:10:05.972Z,3.67
2023-05-09T15:12:32.694Z,3.40
2023-05-09T15:15:13.016Z,1.80
2023-05-09T15:17:39.581Z,3.60
2023-05-09T15:20:07.250Z,3.05
2023-05-09T15:22:34.633Z,4.75
2023-05-09T15:25:02.004Z,3.65
2023-05-09T15:27:29.546Z,4.72
2023-05-09T15:29:56.286Z,3.10
2023-05-09T15:32:22.962Z,3.30
2023-05-09T15:34:49.685Z,7.70
2023-05-09T15:37:16.286Z,3.97
2023-05-09T15:39:43.691Z,4.53
2023-05-09T15:42:12.273Z,7.35
2023-05-09T15:44:42.819Z,6.45
2023-05-09T15:47:09.971Z,2.10
2023-05-09T15:49:36.561Z,3.25
2023-05-09T15:52:04.522Z,2.78
2023-05-09T15:54:31.838Z,4.57
2023-05-09T15:56:59.409Z,4.47
2023-05-09T15:59:26.529Z,3.38
2023-05-09T16:01:53.850Z,2.40
2023-05-09T16:04:20.762Z,5.07
2023-05-09T16:06:48.067Z,4.28
2023-05-09T16:09:15.416Z,3.20
2023-05-09T16:11:42.411Z,4.35
2023-05-09T16:14:12.951Z,3.33
2023-05-09T16:16:40.643Z,3.63
2023-05-09T16:19:07.282Z,3.65
2023-05-09T16:21:33.910Z,3.47
2023-05-09T16:24:02.933Z,2.83
2023-05-09T16:26:29.542Z,4.82
2023-05-09T16:28:56.404Z,2.75
2023-05-09T16:31:26.579Z,2.97
2023-05-09T16:33:54.397Z,5.35
2023-05-09T16:36:22.212Z,2.75
2023-05-09T16:38:48.798Z,4.63
2023-05-09T16:41:16.038Z,4.22
2023-05-09T16:43:42.786Z,3.33
2023-05-09T16:46:09.581Z,4.78
2023-05-09T16:48:36.200Z,2.40
2023-05-09T16:51:03.314Z,3.40
2023-05-09T16:53:29.945Z,4.63
2023-05-09T16:55:56.930Z,3.67
2023-05-09T16:58:23.767Z,4.53
2023-05-09T17:00:50.988Z,2.95
2023-05-09T17:03:17.628Z,2.92
2023-05-09T17:05:44.264Z,2.03
2023-05-09T17:08:11.441Z,2.40
2023-05-09T17:10:39.485Z,3.75
2023-05-09T17:13:08.823Z,5.93
2023-05-09T17:15:35.687Z,2.20
2023-05-09T17:18:03.097Z,2.03
2023-05-09T17:20:30.001Z,3.22
2023-05-09T17:22:57.358Z,5.82
2023-05-09T17:25:24.100Z,4.95
2023-05-09T17:27:50.711Z,2.03
2023-05-09T17:30:18.723Z,3.42
2023-05-09T17:32:47.035Z,5.07
2023-05-09T17:35:13.961Z,2.83
2023-05-09T17:37:40.954Z,3.90
2023-05-09T17:40:08.136Z,2.78
2023-05-09T17:42:34.800Z,3.22
2023-05-09T17:45:01.316Z,3.33
2023-05-09T17:47:28.853Z,2.45
2023-05-09T17:49:55.472Z,4.40
2023-05-09T17:52:22.141Z,4.95
2023-05-09T17:54:48.817Z,2.65
2023-05-09T17:57:15.325Z,1.90
2023-05-09T17:59:42.034Z,4.15
2023-05-09T18:02:08.738Z,6.45
2023-05-09T18:04:35.564Z,2.20
2023-05-09T18:07:02.677Z,1.60
2023-05-09T18:09:29.443Z,1.55
2023-05-09T18:11:56.069Z,7.75
2023-05-09T18:14:22.677Z,5.80
2023-05-09T18:16:49.252Z,2.33
2023-05-09T18:19:15.783Z,1.65
2023-05-09T18:21:42.448Z,1.02
2023-05-09T18:24:09.306Z,2.97
2023-05-09T18:26:36.068Z,1.92
2023-05-09T18:29:02.736Z,0.82
2023-05-09T18:31:31.318Z,2.45
2023-05-09T18:33:57.938Z,3.30
2023-05-09T18:36:24.514Z,1.63
2023-05-09T18:38:51.083Z,1.98
2023-05-09T18:41:17.673Z,2.35
2023-05-09T18:43:47.086Z,1.52
2023-05-09T18:46:17.527Z,2.13
2023-05-09T18:48:45.430Z,2.53
2023-05-09T18:51:12.229Z,3.25
2023-05-09T18:53:38.885Z,1.52
2023-05-09T18:56:05.465Z,1.55
2023-05-09T18:58:32.444Z,1.52
2023-05-09T19:00:59.176Z,2.15
2023-05-09T19:03:27.166Z,1.90
2023-05-09T19:05:54.176Z,2.30
2023-05-09T19:08:20.887Z,1.00
2023-05-09T19:10:47.615Z,2.88
2023-05-09T19:13:16.308Z,2.47
2023-05-09T19:15:43.275Z,4.60
2023-05-09T19:18:09.988Z,1.33
2023-05-09T19:20:46.050Z,2.17
2023-05-09T19:23:12.560Z,3.70
2023-05-09T19:25:39.098Z,3.47
2023-05-09T19:28:06.350Z,1.88
2023-05-09T19:30:33.444Z,2.42
2023-05-09T19:33:00.114Z,4.22
2023-05-09T19:35:26.836Z,1.35
2023-05-09T19:37:53.373Z,2.45
2023-05-09T19:40:20.052Z,1.67
2023-05-09T19:42:46.573Z,1.27
2023-05-09T19:45:13.167Z,3.85
2023-05-09T19:47:39.798Z,1.92
2023-05-09T19:50:07.043Z,5.25
2023-05-09T19:52:36.294Z,2.90
2023-05-09T19:55:03.821Z,1.83
2023-05-09T19:57:30.311Z,1.52
2023-05-09T19:59:57.832Z,1.27
2023-05-09T20:02:24.582Z,3.45
2023-05-09T20:04:51.248Z,1.48
2023-05-09T20:07:18.229Z,1.05
2023-05-09T20:09:44.790Z,2.17
2023-05-09T20:12:11.538Z,6.18
2023-05-09T20:14:38.152Z,4.72
2023-05-09T20:17:05.412Z,6.18
2023-05-09T20:19:33.171Z,2.13
2023-05-09T20:22:01.120Z,3.15
2023-05-09T20:24:27.931Z,1.52
2023-05-09T20:26:57.258Z,1.90
2023-05-09T20:29:25.173Z,2.95
2023-05-09T20:31:51.849Z,3.58
2023-05-09T20:34:20.888Z,2.42
2023-05-09T20:36:51.376Z,2.28
2023-05-09T20:39:18.692Z,3.58
2023-05-09T20:41:46.090Z,2.60
2023-05-09T20:44:14.140Z,3.75
2023-05-09T20:46:40.845Z,2.83
2023-05-09T20:49:07.767Z,1.85
2023-05-09T20:51:34.322Z,3.63
2023-05-09T20:54:00.942Z,5.20
2023-05-09T20:56:28.704Z,1.58
2023-05-09T20:58:56.152Z,2.13
2023-05-09T21:01:22.825Z,2.80
2023-05-09T21:03:49.371Z,1.60
2023-05-09T21:06:15.817Z,7.72
2023-05-09T21:08:42.376Z,7.05
2023-05-09T21:11:09.210Z,6.70
2023-05-09T21:13:37.166Z,3.35
2023-05-09T21:16:03.786Z,2.38
2023-05-09T21:18:30.350Z,4.88
2023-05-09T21:20:56.961Z,2.80
2023-05-09T21:23:23.430Z,4.55
2023-05-09T21:25:49.930Z,2.25
2023-05-09T21:28:17.322Z,1.92
2023-05-09T21:30:43.847Z,2.17
2023-05-09T21:33:10.714Z,2.30
2023-05-09T21:35:37.251Z,1.80
2023-05-09T21:38:03.692Z,3.67
2023-05-09T21:40:30.289Z,7.47
2023-05-09T21:42:56.767Z,3.63
2023-05-09T21:45:23.365Z,5.55
2023-05-09T21:47:49.969Z,4.05
2023-05-09T21:50:16.799Z,5.25
2023-05-09T21:52:43.738Z,2.53
2023-05-09T21:55:10.490Z,2.50
2023-05-09T21:57:36.941Z,5.32
2023-05-09T22:00:05.493Z,3.60
2023-05-09T22:02:32.500Z,2.38
2023-05-09T22:04:59.071Z,5.85
2023-05-09T22:07:25.646Z,2.28
2023-05-09T22:09:52.902Z,4.35
2023-05-09T22:12:19.730Z,2.20
2023-05-09T22:14:55.788Z,4.50
2023-05-09T22:17:23.972Z,3.00
2023-05-09T22:19:50.496Z,1.55
2023-05-09T22:22:16.952Z,2.92
2023-05-09T22:24:43.656Z,2.60
2023-05-09T22:27:10.645Z,3.88
2023-05-09T22:29:37.140Z,1.33
2023-05-09T22:32:03.916Z,4.80
2023-05-09T22:34:31.031Z,1.40
2023-05-09T22:36:57.516Z,3.35
2023-05-09T22:39:24.108Z,2.70
2023-05-09T22:41:50.652Z,2.05
2023-05-09T22:44:17.187Z,1.92
2023-05-09T22:46:43.728Z,2.53
2023-05-09T22:52:57.533Z,4.22
2023-05-09T22:55:24.087Z,5.35
2023-05-09T22:57:50.614Z,2.55
2023-05-09T23:00:18.329Z,2.92
2023-05-09T23:02:45.488Z,3.67
2023-05-09T23:05:12.177Z,5.55
2023-05-09T23:07:38.707Z,2.75
2023-05-09T23:10:05.895Z,5.75
2023-05-09T23:12:32.412Z,2.67
2023-05-09T23:14:58.913Z,2.85
2023-05-09T23:17:25.554Z,5.80
2023-05-09T23:19:52.154Z,3.08
2023-05-09T23:22:18.752Z,4.97
2023-05-09T23:24:45.308Z,4.78
2023-05-09T23:27:11.849Z,3.70
2023-05-09T23:29:38.362Z,5.90
2023-05-09T23:32:05.154Z,4.13
2023-05-09T23:34:31.766Z,6.10
2023-05-09T23:36:58.323Z,6.72
2023-05-09T23:39:24.854Z,5.63
2023-05-09T23:41:51.387Z,4.85
2023-05-09T23:44:17.918Z,14.65
2023-05-09T23:46:44.479Z,6.28
2023-05-09T23:49:13.235Z,5.63
2023-05-09T23:51:39.926Z,5.88
2023-05-09T23:54:07.420Z,7.15
2023-05-09T23:56:33.955Z,8.95
2023-05-09T23:59:00.447Z,8.23
